Emporium, Pennsylvania
Current Conditions -  °F | °C
As of 3:53 PM on Saturday 20 Dec 2014 (Local Time) from KBFD Reporting Station
Overcast Overcast  
Wind Chill: 24°   Ceiling: 1000
Heat Index: 24°   Visibility: 8mi
Dew Point: 19°   Wind: 0mph
Humidity: 81%   Direction: NA
Pressure: 30.16"   Gusts: NA
Location:  41.51°N, 78.24°W
Report Text: KBFD 202053Z AUTO 00000KT 8SM OVC010 M04/M07 A3016 RMK AO2 SLP241 T10441072 55000
Loading
Personal Weather Stations






























Interactive Weather Map New forecast layout! Learn more

10-Day Weather Forecast

Advertisements
Track Severe Weather on mobile